sensor_id;sensor_type;location;lat;lon;timestamp;P1;durP1;ratioP1;P2;durP2;ratioP2
20545;SDS011;10431;50.228;9.112;2023-09-19T00:00:21;8.57;;;2.20;;
20545;SDS011;10431;50.228;9.112;2023-09-19T00:02:55;3.47;;;2.05;;
20545;SDS011;10431;50.228;9.112;2023-09-19T00:05:28;7.15;;;2.33;;
20545;SDS011;10431;50.228;9.112;2023-09-19T00:07:56;7.30;;;2.28;;
20545;SDS011;10431;50.228;9.112;2023-09-19T00:10:26;8.63;;;2.15;;
20545;SDS011;10431;50.228;9.112;2023-09-19T00:12:53;3.58;;;2.03;;
20545;SDS011;10431;50.228;9.112;2023-09-19T00:15:26;4.30;;;2.40;;
20545;SDS011;10431;50.228;9.112;2023-09-19T00:17:56;5.20;;;2.20;;
20545;SDS011;10431;50.228;9.112;2023-09-19T00:20:22;5.10;;;1.77;;
20545;SDS011;10431;50.228;9.112;2023-09-19T00:22:50;5.07;;;2.20;;
20545;SDS011;10431;50.228;9.112;2023-09-19T00:25:19;4.45;;;2.10;;
20545;SDS011;10431;50.228;9.112;2023-09-19T00:27:46;3.72;;;2.03;;
20545;SDS011;10431;50.228;9.112;2023-09-19T00:30:17;4.07;;;1.90;;
20545;SDS011;10431;50.228;9.112;2023-09-19T00:32:47;5.22;;;2.00;;
20545;SDS011;10431;50.228;9.112;2023-09-19T00:35:14;7.75;;;2.08;;
20545;SDS011;10431;50.228;9.112;2023-09-19T00:37:44;4.57;;;2.10;;
20545;SDS011;10431;50.228;9.112;2023-09-19T00:40:11;3.40;;;1.75;;
20545;SDS011;10431;50.228;9.112;2023-09-19T00:42:47;4.00;;;1.95;;
20545;SDS011;10431;50.228;9.112;2023-09-19T00:45:14;4.40;;;1.88;;
20545;SDS011;10431;50.228;9.112;2023-09-19T00:47:44;4.28;;;2.03;;
20545;SDS011;10431;50.228;9.112;2023-09-19T00:50:12;5.13;;;2.03;;
20545;SDS011;10431;50.228;9.112;2023-09-19T00:52:40;6.97;;;2.17;;
20545;SDS011;10431;50.228;9.112;2023-09-19T00:55:08;4.47;;;1.88;;
20545;SDS011;10431;50.228;9.112;2023-09-19T00:57:36;6.50;;;2.00;;
20545;SDS011;10431;50.228;9.112;2023-09-19T01:00:04;4.95;;;2.10;;
20545;SDS011;10431;50.228;9.112;2023-09-19T01:02:34;3.63;;;1.85;;
20545;SDS011;10431;50.228;9.112;2023-09-19T01:05:01;6.05;;;2.78;;
20545;SDS011;10431;50.228;9.112;2023-09-19T01:07:30;3.03;;;1.95;;
20545;SDS011;10431;50.228;9.112;2023-09-19T01:09:59;4.22;;;1.55;;
20545;SDS011;10431;50.228;9.112;2023-09-19T01:22:16;2.88;;;1.90;;
20545;SDS011;10431;50.228;9.112;2023-09-19T01:30:43;3.38;;;1.80;;
20545;SDS011;10431;50.228;9.112;2023-09-19T01:33:10;4.53;;;2.20;;
20545;SDS011;10431;50.228;9.112;2023-09-19T01:35:40;2.95;;;1.85;;
20545;SDS011;10431;50.228;9.112;2023-09-19T01:38:07;6.28;;;1.88;;
20545;SDS011;10431;50.228;9.112;2023-09-19T01:40:41;5.35;;;1.88;;
20545;SDS011;10431;50.228;9.112;2023-09-19T01:43:22;4.57;;;1.73;;
20545;SDS011;10431;50.228;9.112;2023-09-19T01:46:09;4.28;;;1.50;;
20545;SDS011;10431;50.228;9.112;2023-09-19T01:51:20;2.58;;;1.60;;
20545;SDS011;10431;50.228;9.112;2023-09-19T01:56:30;4.95;;;1.85;;
20545;SDS011;10431;50.228;9.112;2023-09-19T01:59:04;3.75;;;1.50;;
20545;SDS011;10431;50.228;9.112;2023-09-19T02:01:35;3.08;;;1.80;;
20545;SDS011;10431;50.228;9.112;2023-09-19T02:04:03;3.33;;;1.95;;
20545;SDS011;10431;50.228;9.112;2023-09-19T02:06:31;3.13;;;1.80;;
20545;SDS011;10431;50.228;9.112;2023-09-19T02:08:59;3.42;;;1.98;;
20545;SDS011;10431;50.228;9.112;2023-09-19T02:11:26;3.20;;;1.80;;
20545;SDS011;10431;50.228;9.112;2023-09-19T02:13:52;4.10;;;1.40;;
20545;SDS011;10431;50.228;9.112;2023-09-19T02:16:20;4.85;;;1.70;;
20545;SDS011;10431;50.228;9.112;2023-09-19T02:18:47;3.45;;;1.45;;
20545;SDS011;10431;50.228;9.112;2023-09-19T02:21:15;4.50;;;1.70;;
20545;SDS011;10431;50.228;9.112;2023-09-19T02:23:43;4.30;;;1.38;;
20545;SDS011;10431;50.228;9.112;2023-09-19T02:26:12;4.72;;;1.63;;
20545;SDS011;10431;50.228;9.112;2023-09-19T02:28:40;5.70;;;1.65;;
20545;SDS011;10431;50.228;9.112;2023-09-19T02:31:08;3.17;;;1.75;;
20545;SDS011;10431;50.228;9.112;2023-09-19T02:33:34;5.60;;;1.40;;
20545;SDS011;10431;50.228;9.112;2023-09-19T02:36:01;3.30;;;1.67;;
20545;SDS011;10431;50.228;9.112;2023-09-19T02:38:29;4.88;;;1.40;;
20545;SDS011;10431;50.228;9.112;2023-09-19T02:40:55;8.27;;;1.90;;
20545;SDS011;10431;50.228;9.112;2023-09-19T02:43:22;4.78;;;1.65;;
20545;SDS011;10431;50.228;9.112;2023-09-19T02:45:49;3.53;;;1.40;;
20545;SDS011;10431;50.228;9.112;2023-09-19T02:48:16;4.03;;;1.70;;
20545;SDS011;10431;50.228;9.112;2023-09-19T02:50:44;8.70;;;1.77;;
20545;SDS011;10431;50.228;9.112;2023-09-19T02:53:10;3.28;;;1.40;;
20545;SDS011;10431;50.228;9.112;2023-09-19T02:55:38;4.10;;;1.42;;
20545;SDS011;10431;50.228;9.112;2023-09-19T02:58:06;4.55;;;1.42;;
20545;SDS011;10431;50.228;9.112;2023-09-19T03:00:40;5.90;;;1.77;;
20545;SDS011;10431;50.228;9.112;2023-09-19T03:03:17;4.50;;;1.73;;
20545;SDS011;10431;50.228;9.112;2023-09-19T03:05:44;3.80;;;1.40;;
20545;SDS011;10431;50.228;9.112;2023-09-19T03:08:13;2.15;;;1.48;;
20545;SDS011;10431;50.228;9.112;2023-09-19T03:10:41;4.32;;;1.35;;
20545;SDS011;10431;50.228;9.112;2023-09-19T03:13:07;6.38;;;1.70;;
20545;SDS011;10431;50.228;9.112;2023-09-19T03:15:35;1.80;;;1.45;;
20545;SDS011;10431;50.228;9.112;2023-09-19T03:18:05;6.22;;;1.67;;
20545;SDS011;10431;50.228;9.112;2023-09-19T03:20:32;4.85;;;1.80;;
20545;SDS011;10431;50.228;9.112;2023-09-19T03:22:58;3.03;;;1.60;;
20545;SDS011;10431;50.228;9.112;2023-09-19T03:25:26;6.32;;;1.60;;
20545;SDS011;10431;50.228;9.112;2023-09-19T03:27:55;5.35;;;1.75;;
20545;SDS011;10431;50.228;9.112;2023-09-19T03:30:24;4.60;;;1.83;;
20545;SDS011;10431;50.228;9.112;2023-09-19T03:32:50;4.15;;;1.40;;
20545;SDS011;10431;50.228;9.112;2023-09-19T03:35:17;4.78;;;1.38;;
20545;SDS011;10431;50.228;9.112;2023-09-19T03:37:44;3.45;;;1.30;;
20545;SDS011;10431;50.228;9.112;2023-09-19T03:40:11;4.47;;;1.60;;
20545;SDS011;10431;50.228;9.112;2023-09-19T03:42:41;2.67;;;1.50;;
20545;SDS011;10431;50.228;9.112;2023-09-19T03:45:11;5.10;;;1.48;;
20545;SDS011;10431;50.228;9.112;2023-09-19T03:47:39;3.10;;;1.70;;
20545;SDS011;10431;50.228;9.112;2023-09-19T03:50:07;3.53;;;1.77;;
20545;SDS011;10431;50.228;9.112;2023-09-19T03:52:34;1.73;;;1.30;;
20545;SDS011;10431;50.228;9.112;2023-09-19T03:55:01;3.08;;;1.33;;
20545;SDS011;10431;50.228;9.112;2023-09-19T03:57:35;2.10;;;1.38;;
20545;SDS011;10431;50.228;9.112;2023-09-19T04:00:02;3.38;;;1.83;;
20545;SDS011;10431;50.228;9.112;2023-09-19T04:02:38;2.67;;;1.58;;
20545;SDS011;10431;50.228;9.112;2023-09-19T04:05:05;2.55;;;1.40;;
20545;SDS011;10431;50.228;9.112;2023-09-19T04:07:32;3.55;;;1.60;;
20545;SDS011;10431;50.228;9.112;2023-09-19T04:10:00;4.18;;;1.65;;
20545;SDS011;10431;50.228;9.112;2023-09-19T04:12:27;6.60;;;1.85;;
20545;SDS011;10431;50.228;9.112;2023-09-19T04:14:53;4.03;;;1.33;;
20545;SDS011;10431;50.228;9.112;2023-09-19T04:17:19;3.38;;;1.50;;
20545;SDS011;10431;50.228;9.112;2023-09-19T04:19:46;3.85;;;1.48;;
20545;SDS011;10431;50.228;9.112;2023-09-19T04:22:12;3.03;;;1.40;;
20545;SDS011;10431;50.228;9.112;2023-09-19T04:24:38;2.60;;;1.42;;
20545;SDS011;10431;50.228;9.112;2023-09-19T04:27:05;4.30;;;2.05;;
20545;SDS011;10431;50.228;9.112;2023-09-19T04:29:32;4.18;;;1.30;;
20545;SDS011;10431;50.228;9.112;2023-09-19T04:31:59;2.90;;;1.27;;
20545;SDS011;10431;50.228;9.112;2023-09-19T04:34:25;2.40;;;1.20;;
20545;SDS011;10431;50.228;9.112;2023-09-19T04:36:51;3.13;;;1.55;;
20545;SDS011;10431;50.228;9.112;2023-09-19T04:39:18;2.92;;;1.30;;
20545;SDS011;10431;50.228;9.112;2023-09-19T04:41:44;4.60;;;1.25;;
20545;SDS011;10431;50.228;9.112;2023-09-19T04:44:11;4.03;;;1.50;;
20545;SDS011;10431;50.228;9.112;2023-09-19T04:46:39;2.75;;;1.38;;
20545;SDS011;10431;50.228;9.112;2023-09-19T04:49:05;2.08;;;1.20;;
20545;SDS011;10431;50.228;9.112;2023-09-19T04:51:31;3.08;;;1.25;;
20545;SDS011;10431;50.228;9.112;2023-09-19T04:54:00;4.40;;;1.55;;
20545;SDS011;10431;50.228;9.112;2023-09-19T04:56:26;2.25;;;1.38;;
20545;SDS011;10431;50.228;9.112;2023-09-19T04:58:54;3.88;;;2.25;;
20545;SDS011;10431;50.228;9.112;2023-09-19T05:01:20;4.28;;;1.40;;
20545;SDS011;10431;50.228;9.112;2023-09-19T05:03:48;3.08;;;1.52;;
20545;SDS011;10431;50.228;9.112;2023-09-19T05:06:18;2.90;;;1.45;;
20545;SDS011;10431;50.228;9.112;2023-09-19T05:08:48;4.43;;;1.60;;
20545;SDS011;10431;50.228;9.112;2023-09-19T05:11:18;3.90;;;1.60;;
20545;SDS011;10431;50.228;9.112;2023-09-19T05:13:48;2.55;;;1.58;;
20545;SDS011;10431;50.228;9.112;2023-09-19T05:16:16;4.10;;;1.50;;
20545;SDS011;10431;50.228;9.112;2023-09-19T05:18:42;5.47;;;1.75;;
20545;SDS011;10431;50.228;9.112;2023-09-19T05:21:08;5.10;;;1.60;;
20545;SDS011;10431;50.228;9.112;2023-09-19T05:23:34;2.72;;;1.35;;
20545;SDS011;10431;50.228;9.112;2023-09-19T05:26:02;4.90;;;1.50;;
20545;SDS011;10431;50.228;9.112;2023-09-19T05:28:29;2.65;;;1.42;;
20545;SDS011;10431;50.228;9.112;2023-09-19T05:30:55;5.10;;;1.60;;
20545;SDS011;10431;50.228;9.112;2023-09-19T05:33:21;3.13;;;1.75;;
20545;SDS011;10431;50.228;9.112;2023-09-19T05:35:48;3.35;;;1.40;;
20545;SDS011;10431;50.228;9.112;2023-09-19T05:38:14;1.88;;;1.40;;
20545;SDS011;10431;50.228;9.112;2023-09-19T05:40:44;2.20;;;1.35;;
20545;SDS011;10431;50.228;9.112;2023-09-19T05:43:11;2.70;;;1.65;;
20545;SDS011;10431;50.228;9.112;2023-09-19T05:45:40;3.33;;;1.40;;
20545;SDS011;10431;50.228;9.112;2023-09-19T05:48:07;4.50;;;1.60;;
20545;SDS011;10431;50.228;9.112;2023-09-19T05:50:39;4.13;;;1.70;;
20545;SDS011;10431;50.228;9.112;2023-09-19T05:53:05;4.82;;;1.90;;
20545;SDS011;10431;50.228;9.112;2023-09-19T05:55:32;2.80;;;1.80;;
20545;SDS011;10431;50.228;9.112;2023-09-19T05:57:58;2.35;;;1.50;;
20545;SDS011;10431;50.228;9.112;2023-09-19T06:00:25;2.42;;;1.60;;
20545;SDS011;10431;50.228;9.112;2023-09-19T06:02:53;1.60;;;1.25;;
20545;SDS011;10431;50.228;9.112;2023-09-19T06:05:20;2.70;;;1.88;;
20545;SDS011;10431;50.228;9.112;2023-09-19T06:07:47;4.70;;;1.98;;
20545;SDS011;10431;50.228;9.112;2023-09-19T06:10:14;3.83;;;2.15;;
20545;SDS011;10431;50.228;9.112;2023-09-19T06:12:41;5.32;;;1.98;;
20545;SDS011;10431;50.228;9.112;2023-09-19T06:15:09;4.85;;;1.73;;
20545;SDS011;10431;50.228;9.112;2023-09-19T06:17:47;3.42;;;1.67;;
20545;SDS011;10431;50.228;9.112;2023-09-19T06:20:14;4.90;;;1.98;;
20545;SDS011;10431;50.228;9.112;2023-09-19T06:22:42;2.58;;;1.63;;
20545;SDS011;10431;50.228;9.112;2023-09-19T06:25:10;3.03;;;2.10;;
20545;SDS011;10431;50.228;9.112;2023-09-19T06:27:38;3.72;;;1.63;;
20545;SDS011;10431;50.228;9.112;2023-09-19T06:30:08;3.25;;;2.08;;
20545;SDS011;10431;50.228;9.112;2023-09-19T06:32:37;6.60;;;2.15;;
20545;SDS011;10431;50.228;9.112;2023-09-19T06:35:03;5.53;;;2.10;;
20545;SDS011;10431;50.228;9.112;2023-09-19T06:37:33;5.90;;;1.90;;
20545;SDS011;10431;50.228;9.112;2023-09-19T06:40:00;4.18;;;1.98;;
20545;SDS011;10431;50.228;9.112;2023-09-19T06:42:26;6.20;;;2.53;;
20545;SDS011;10431;50.228;9.112;2023-09-19T06:44:54;8.52;;;2.10;;
20545;SDS011;10431;50.228;9.112;2023-09-19T06:47:20;7.10;;;1.98;;
20545;SDS011;10431;50.228;9.112;2023-09-19T06:49:46;8.13;;;2.10;;
20545;SDS011;10431;50.228;9.112;2023-09-19T06:52:13;4.65;;;2.17;;
20545;SDS011;10431;50.228;9.112;2023-09-19T06:54:41;9.43;;;3.05;;
20545;SDS011;10431;50.228;9.112;2023-09-19T06:57:07;5.38;;;2.15;;
20545;SDS011;10431;50.228;9.112;2023-09-19T06:59:35;4.50;;;1.80;;
20545;SDS011;10431;50.228;9.112;2023-09-19T07:02:02;4.35;;;2.20;;
20545;SDS011;10431;50.228;9.112;2023-09-19T07:04:31;6.28;;;2.35;;
20545;SDS011;10431;50.228;9.112;2023-09-19T07:06:58;4.40;;;1.95;;
20545;SDS011;10431;50.228;9.112;2023-09-19T07:09:24;4.63;;;1.70;;
20545;SDS011;10431;50.228;9.112;2023-09-19T07:11:53;6.53;;;1.95;;
20545;SDS011;10431;50.228;9.112;2023-09-19T07:14:19;4.78;;;2.13;;
20545;SDS011;10431;50.228;9.112;2023-09-19T07:16:46;4.43;;;1.92;;
20545;SDS011;10431;50.228;9.112;2023-09-19T07:19:16;4.93;;;1.90;;
20545;SDS011;10431;50.228;9.112;2023-09-19T07:21:42;4.90;;;2.00;;
20545;SDS011;10431;50.228;9.112;2023-09-19T07:24:09;5.05;;;2.00;;
20545;SDS011;10431;50.228;9.112;2023-09-19T07:26:35;3.38;;;1.80;;
20545;SDS011;10431;50.228;9.112;2023-09-19T07:29:01;5.30;;;1.85;;
20545;SDS011;10431;50.228;9.112;2023-09-19T07:31:29;3.67;;;1.80;;
20545;SDS011;10431;50.228;9.112;2023-09-19T07:33:56;7.03;;;1.98;;
20545;SDS011;10431;50.228;9.112;2023-09-19T07:36:23;6.38;;;2.00;;
20545;SDS011;10431;50.228;9.112;2023-09-19T07:38:50;3.50;;;1.80;;
20545;SDS011;10431;50.228;9.112;2023-09-19T07:41:16;5.38;;;2.15;;
20545;SDS011;10431;50.228;9.112;2023-09-19T07:43:42;4.03;;;2.42;;
20545;SDS011;10431;50.228;9.112;2023-09-19T07:46:09;3.70;;;2.15;;
20545;SDS011;10431;50.228;9.112;2023-09-19T07:48:37;4.43;;;2.28;;
20545;SDS011;10431;50.228;9.112;2023-09-19T07:51:07;7.05;;;2.00;;
20545;SDS011;10431;50.228;9.112;2023-09-19T07:53:34;5.50;;;2.28;;
20545;SDS011;10431;50.228;9.112;2023-09-19T07:56:02;7.03;;;2.38;;
20545;SDS011;10431;50.228;9.112;2023-09-19T07:58:32;2.25;;;1.70;;
20545;SDS011;10431;50.228;9.112;2023-09-19T08:01:02;8.00;;;1.98;;
20545;SDS011;10431;50.228;9.112;2023-09-19T08:03:33;4.25;;;1.90;;
20545;SDS011;10431;50.228;9.112;2023-09-19T08:06:00;3.08;;;2.00;;
20545;SDS011;10431;50.228;9.112;2023-09-19T08:08:27;5.75;;;2.05;;
20545;SDS011;10431;50.228;9.112;2023-09-19T08:10:53;4.07;;;1.80;;
20545;SDS011;10431;50.228;9.112;2023-09-19T08:13:22;4.03;;;1.98;;
20545;SDS011;10431;50.228;9.112;2023-09-19T08:15:49;6.13;;;1.88;;
20545;SDS011;10431;50.228;9.112;2023-09-19T08:18:19;3.15;;;1.98;;
20545;SDS011;10431;50.228;9.112;2023-09-19T08:20:52;3.53;;;1.70;;
20545;SDS011;10431;50.228;9.112;2023-09-19T08:23:18;3.45;;;1.98;;
20545;SDS011;10431;50.228;9.112;2023-09-19T08:25:47;4.38;;;1.90;;
20545;SDS011;10431;50.228;9.112;2023-09-19T08:28:13;5.03;;;1.85;;
20545;SDS011;10431;50.228;9.112;2023-09-19T08:30:47;4.68;;;1.85;;
20545;SDS011;10431;50.228;9.112;2023-09-19T08:33:13;5.75;;;2.03;;
20545;SDS011;10431;50.228;9.112;2023-09-19T08:35:41;4.25;;;1.85;;
20545;SDS011;10431;50.228;9.112;2023-09-19T08:38:09;4.15;;;1.88;;
20545;SDS011;10431;50.228;9.112;2023-09-19T08:40:37;5.32;;;1.95;;
20545;SDS011;10431;50.228;9.112;2023-09-19T08:43:05;4.93;;;1.75;;
20545;SDS011;10431;50.228;9.112;2023-09-19T08:45:33;8.13;;;2.53;;
20545;SDS011;10431;50.228;9.112;2023-09-19T08:50:41;14.68;;;2.35;;
20545;SDS011;10431;50.228;9.112;2023-09-19T08:53:15;23.30;;;3.10;;
20545;SDS011;10431;50.228;9.112;2023-09-19T08:55:48;21.05;;;3.10;;
20545;SDS011;10431;50.228;9.112;2023-09-19T08:58:19;10.07;;;2.50;;
20545;SDS011;10431;50.228;9.112;2023-09-19T09:00:47;20.10;;;2.83;;
20545;SDS011;10431;50.228;9.112;2023-09-19T09:03:16;17.23;;;2.95;;
20545;SDS011;10431;50.228;9.112;2023-09-19T09:05:45;21.80;;;3.17;;
20545;SDS011;10431;50.228;9.112;2023-09-19T09:08:13;26.45;;;3.40;;
20545;SDS011;10431;50.228;9.112;2023-09-19T09:10:39;20.50;;;3.65;;
20545;SDS011;10431;50.228;9.112;2023-09-19T09:13:08;20.40;;;3.50;;
20545;SDS011;10431;50.228;9.112;2023-09-19T09:15:36;30.38;;;4.15;;
20545;SDS011;10431;50.228;9.112;2023-09-19T09:18:03;27.88;;;3.33;;
20545;SDS011;10431;50.228;9.112;2023-09-19T09:20:30;31.35;;;3.05;;
20545;SDS011;10431;50.228;9.112;2023-09-19T09:22:57;23.15;;;3.10;;
20545;SDS011;10431;50.228;9.112;2023-09-19T09:25:51;14.70;;;3.47;;
20545;SDS011;10431;50.228;9.112;2023-09-19T09:28:25;23.27;;;2.92;;
20545;SDS011;10431;50.228;9.112;2023-09-19T09:30:54;29.77;;;3.38;;
20545;SDS011;10431;50.228;9.112;2023-09-19T09:33:21;19.17;;;3.40;;
20545;SDS011;10431;50.228;9.112;2023-09-19T09:38:27;21.08;;;3.03;;
20545;SDS011;10431;50.228;9.112;2023-09-19T09:40:57;20.70;;;3.67;;
20545;SDS011;10431;50.228;9.112;2023-09-19T09:43:37;15.90;;;2.83;;
20545;SDS011;10431;50.228;9.112;2023-09-19T09:46:16;32.80;;;3.50;;
20545;SDS011;10431;50.228;9.112;2023-09-19T09:48:47;19.10;;;3.67;;
20545;SDS011;10431;50.228;9.112;2023-09-19T09:51:39;26.55;;;3.33;;
20545;SDS011;10431;50.228;9.112;2023-09-19T09:54:25;29.98;;;3.38;;
20545;SDS011;10431;50.228;9.112;2023-09-19T09:57:05;30.52;;;3.80;;
20545;SDS011;10431;50.228;9.112;2023-09-19T10:02:17;24.15;;;3.30;;
20545;SDS011;10431;50.228;9.112;2023-09-19T10:04:50;28.30;;;3.53;;
20545;SDS011;10431;50.228;9.112;2023-09-19T10:07:35;14.63;;;3.10;;
20545;SDS011;10431;50.228;9.112;2023-09-19T10:10:04;15.77;;;2.50;;
20545;SDS011;10431;50.228;9.112;2023-09-19T10:12:41;14.55;;;2.78;;
20545;SDS011;10431;50.228;9.112;2023-09-19T10:15:10;22.60;;;2.72;;
20545;SDS011;10431;50.228;9.112;2023-09-19T10:17:44;11.68;;;3.38;;
20545;SDS011;10431;50.228;9.112;2023-09-19T10:20:17;18.83;;;3.13;;
20545;SDS011;10431;50.228;9.112;2023-09-19T10:22:59;18.38;;;2.70;;
20545;SDS011;10431;50.228;9.112;2023-09-19T10:25:26;27.20;;;2.92;;
20545;SDS011;10431;50.228;9.112;2023-09-19T10:27:57;16.80;;;3.10;;
20545;SDS011;10431;50.228;9.112;2023-09-19T10:30:28;19.00;;;2.63;;
20545;SDS011;10431;50.228;9.112;2023-09-19T10:33:00;14.75;;;2.97;;
20545;SDS011;10431;50.228;9.112;2023-09-19T10:35:28;15.98;;;2.95;;
20545;SDS011;10431;50.228;9.112;2023-09-19T10:37:57;14.00;;;3.63;;
20545;SDS011;10431;50.228;9.112;2023-09-19T10:40:26;14.68;;;3.03;;
20545;SDS011;10431;50.228;9.112;2023-09-19T10:43:00;20.17;;;3.00;;
20545;SDS011;10431;50.228;9.112;2023-09-19T10:45:31;24.15;;;2.97;;
20545;SDS011;10431;50.228;9.112;2023-09-19T10:47:59;12.30;;;2.47;;
20545;SDS011;10431;50.228;9.112;2023-09-19T10:50:30;35.78;;;3.30;;
20545;SDS011;10431;50.228;9.112;2023-09-19T10:53:11;22.83;;;3.45;;
20545;SDS011;10431;50.228;9.112;2023-09-19T10:55:39;18.77;;;3.22;;
20545;SDS011;10431;50.228;9.112;2023-09-19T10:58:06;24.55;;;3.35;;
20545;SDS011;10431;50.228;9.112;2023-09-19T11:00:53;21.33;;;3.38;;
20545;SDS011;10431;50.228;9.112;2023-09-19T11:03:21;24.33;;;3.53;;
20545;SDS011;10431;50.228;9.112;2023-09-19T11:30:39;18.55;;;3.47;;
20545;SDS011;10431;50.228;9.112;2023-09-19T11:33:25;10.65;;;2.78;;
20545;SDS011;10431;50.228;9.112;2023-09-19T11:36:07;16.45;;;2.72;;
20545;SDS011;10431;50.228;9.112;2023-09-19T11:43:46;14.30;;;3.00;;
20545;SDS011;10431;50.228;9.112;2023-09-19T11:46:33;6.93;;;2.42;;
20545;SDS011;10431;50.228;9.112;2023-09-19T11:49:09;15.32;;;2.40;;
20545;SDS011;10431;50.228;9.112;2023-09-19T11:51:45;18.15;;;2.85;;
20545;SDS011;10431;50.228;9.112;2023-09-19T11:54:13;10.60;;;3.03;;
20545;SDS011;10431;50.228;9.112;2023-09-19T11:56:44;20.33;;;2.97;;
20545;SDS011;10431;50.228;9.112;2023-09-19T11:59:19;14.02;;;2.60;;
20545;SDS011;10431;50.228;9.112;2023-09-19T12:01:56;8.35;;;2.08;;
20545;SDS011;10431;50.228;9.112;2023-09-19T12:04:39;7.70;;;2.58;;
20545;SDS011;10431;50.228;9.112;2023-09-19T12:07:11;13.95;;;2.42;;
20545;SDS011;10431;50.228;9.112;2023-09-19T12:09:42;5.43;;;2.17;;
20545;SDS011;10431;50.228;9.112;2023-09-19T12:12:19;6.80;;;2.22;;
20545;SDS011;10431;50.228;9.112;2023-09-19T12:14:47;8.40;;;2.42;;
20545;SDS011;10431;50.228;9.112;2023-09-19T12:17:14;10.07;;;2.17;;
20545;SDS011;10431;50.228;9.112;2023-09-19T12:19:49;9.98;;;2.30;;
20545;SDS011;10431;50.228;9.112;2023-09-19T12:22:17;7.95;;;2.30;;
20545;SDS011;10431;50.228;9.112;2023-09-19T12:24:44;9.32;;;2.35;;
20545;SDS011;10431;50.228;9.112;2023-09-19T12:27:12;9.80;;;2.53;;
20545;SDS011;10431;50.228;9.112;2023-09-19T12:29:46;6.82;;;2.42;;
20545;SDS011;10431;50.228;9.112;2023-09-19T12:32:16;5.78;;;2.10;;
20545;SDS011;10431;50.228;9.112;2023-09-19T12:34:54;6.68;;;2.20;;
20545;SDS011;10431;50.228;9.112;2023-09-19T12:37:20;8.02;;;2.50;;
20545;SDS011;10431;50.228;9.112;2023-09-19T12:39:48;9.77;;;2.30;;
20545;SDS011;10431;50.228;9.112;2023-09-19T12:42:17;8.98;;;2.88;;
20545;SDS011;10431;50.228;9.112;2023-09-19T12:44:46;8.10;;;2.40;;
20545;SDS011;10431;50.228;9.112;2023-09-19T12:47:15;7.43;;;2.10;;
20545;SDS011;10431;50.228;9.112;2023-09-19T12:52:41;6.10;;;2.15;;
20545;SDS011;10431;50.228;9.112;2023-09-19T12:55:21;6.53;;;2.15;;
20545;SDS011;10431;50.228;9.112;2023-09-19T12:57:57;7.28;;;2.45;;
20545;SDS011;10431;50.228;9.112;2023-09-19T13:00:32;6.10;;;2.30;;
20545;SDS011;10431;50.228;9.112;2023-09-19T13:03:14;8.65;;;2.10;;
20545;SDS011;10431;50.228;9.112;2023-09-19T13:05:58;10.32;;;2.15;;
20545;SDS011;10431;50.228;9.112;2023-09-19T13:08:37;6.13;;;2.42;;
20545;SDS011;10431;50.228;9.112;2023-09-19T13:13:40;6.65;;;2.28;;
20545;SDS011;10431;50.228;9.112;2023-09-19T13:16:09;7.00;;;2.03;;
20545;SDS011;10431;50.228;9.112;2023-09-19T13:18:46;9.20;;;2.70;;
20545;SDS011;10431;50.228;9.112;2023-09-19T13:21:17;6.20;;;2.10;;
20545;SDS011;10431;50.228;9.112;2023-09-19T13:23:53;6.28;;;2.20;;
20545;SDS011;10431;50.228;9.112;2023-09-19T13:26:42;5.07;;;2.08;;
20545;SDS011;10431;50.228;9.112;2023-09-19T13:29:08;7.15;;;2.22;;
20545;SDS011;10431;50.228;9.112;2023-09-19T13:31:34;6.93;;;2.00;;
20545;SDS011;10431;50.228;9.112;2023-09-19T13:34:01;6.30;;;2.00;;
20545;SDS011;10431;50.228;9.112;2023-09-19T13:36:27;5.35;;;2.25;;
20545;SDS011;10431;50.228;9.112;2023-09-19T13:38:54;5.97;;;1.95;;
20545;SDS011;10431;50.228;9.112;2023-09-19T13:41:21;5.75;;;2.30;;
20545;SDS011;10431;50.228;9.112;2023-09-19T13:43:47;16.20;;;2.80;;
20545;SDS011;10431;50.228;9.112;2023-09-19T13:46:14;8.57;;;2.40;;
20545;SDS011;10431;50.228;9.112;2023-09-19T13:48:42;10.18;;;2.55;;
20545;SDS011;10431;50.228;9.112;2023-09-19T13:51:08;8.48;;;2.45;;
20545;SDS011;10431;50.228;9.112;2023-09-19T13:53:34;7.22;;;2.50;;
20545;SDS011;10431;50.228;9.112;2023-09-19T13:56:00;9.40;;;2.40;;
20545;SDS011;10431;50.228;9.112;2023-09-19T13:58:26;8.32;;;1.92;;
20545;SDS011;10431;50.228;9.112;2023-09-19T14:00:53;6.70;;;2.53;;
20545;SDS011;10431;50.228;9.112;2023-09-19T14:03:23;12.77;;;2.50;;
20545;SDS011;10431;50.228;9.112;2023-09-19T14:05:50;8.38;;;2.65;;
20545;SDS011;10431;50.228;9.112;2023-09-19T14:08:17;6.20;;;2.20;;
20545;SDS011;10431;50.228;9.112;2023-09-19T14:10:43;14.20;;;3.95;;
20545;SDS011;10431;50.228;9.112;2023-09-19T14:13:09;9.35;;;2.45;;
20545;SDS011;10431;50.228;9.112;2023-09-19T14:15:38;7.80;;;2.30;;
20545;SDS011;10431;50.228;9.112;2023-09-19T14:18:04;6.82;;;2.65;;
20545;SDS011;10431;50.228;9.112;2023-09-19T14:20:31;5.38;;;1.80;;
20545;SDS011;10431;50.228;9.112;2023-09-19T14:22:57;6.72;;;2.30;;
20545;SDS011;10431;50.228;9.112;2023-09-19T14:25:27;8.07;;;2.15;;
20545;SDS011;10431;50.228;9.112;2023-09-19T14:27:55;6.18;;;2.35;;
20545;SDS011;10431;50.228;9.112;2023-09-19T14:30:21;8.27;;;2.55;;
20545;SDS011;10431;50.228;9.112;2023-09-19T14:32:48;7.97;;;2.38;;
20545;SDS011;10431;50.228;9.112;2023-09-19T14:35:14;7.10;;;2.00;;
20545;SDS011;10431;50.228;9.112;2023-09-19T14:37:42;6.13;;;2.20;;
20545;SDS011;10431;50.228;9.112;2023-09-19T14:40:08;4.88;;;1.58;;
20545;SDS011;10431;50.228;9.112;2023-09-19T14:42:38;9.25;;;2.10;;
20545;SDS011;10431;50.228;9.112;2023-09-19T14:45:05;7.60;;;2.30;;
20545;SDS011;10431;50.228;9.112;2023-09-19T14:47:32;7.93;;;2.70;;
20545;SDS011;10431;50.228;9.112;2023-09-19T14:50:02;8.20;;;2.22;;
20545;SDS011;10431;50.228;9.112;2023-09-19T14:52:34;7.97;;;2.50;;
20545;SDS011;10431;50.228;9.112;2023-09-19T14:55:01;5.45;;;2.30;;
20545;SDS011;10431;50.228;9.112;2023-09-19T14:57:30;10.10;;;2.25;;
20545;SDS011;10431;50.228;9.112;2023-09-19T14:59:56;4.95;;;1.80;;
20545;SDS011;10431;50.228;9.112;2023-09-19T15:02:23;6.88;;;2.00;;
20545;SDS011;10431;50.228;9.112;2023-09-19T15:04:51;5.07;;;2.00;;
20545;SDS011;10431;50.228;9.112;2023-09-19T15:07:18;6.18;;;1.80;;
20545;SDS011;10431;50.228;9.112;2023-09-19T15:09:44;7.50;;;2.25;;
20545;SDS011;10431;50.228;9.112;2023-09-19T15:12:11;4.60;;;2.10;;
20545;SDS011;10431;50.228;9.112;2023-09-19T15:14:40;5.93;;;2.22;;
20545;SDS011;10431;50.228;9.112;2023-09-19T15:17:07;7.47;;;2.20;;
20545;SDS011;10431;50.228;9.112;2023-09-19T15:19:34;7.72;;;2.35;;
20545;SDS011;10431;50.228;9.112;2023-09-19T15:22:01;5.90;;;1.92;;
20545;SDS011;10431;50.228;9.112;2023-09-19T15:24:27;6.78;;;2.30;;
20545;SDS011;10431;50.228;9.112;2023-09-19T15:26:53;6.40;;;2.08;;
20545;SDS011;10431;50.228;9.112;2023-09-19T15:29:21;5.28;;;1.98;;
20545;SDS011;10431;50.228;9.112;2023-09-19T15:31:47;6.60;;;2.35;;
20545;SDS011;10431;50.228;9.112;2023-09-19T15:34:13;9.32;;;1.90;;
20545;SDS011;10431;50.228;9.112;2023-09-19T15:36:41;7.82;;;2.00;;
20545;SDS011;10431;50.228;9.112;2023-09-19T15:39:07;5.07;;;1.92;;
20545;SDS011;10431;50.228;9.112;2023-09-19T15:41:37;6.70;;;2.00;;
20545;SDS011;10431;50.228;9.112;2023-09-19T15:44:10;5.53;;;1.90;;
20545;SDS011;10431;50.228;9.112;2023-09-19T15:46:41;4.70;;;2.20;;
20545;SDS011;10431;50.228;9.112;2023-09-19T15:49:07;3.50;;;2.00;;
20545;SDS011;10431;50.228;9.112;2023-09-19T15:51:34;5.65;;;2.00;;
20545;SDS011;10431;50.228;9.112;2023-09-19T15:54:07;4.93;;;1.90;;
20545;SDS011;10431;50.228;9.112;2023-09-19T15:56:35;7.90;;;2.20;;
20545;SDS011;10431;50.228;9.112;2023-09-19T15:59:02;6.95;;;2.30;;
20545;SDS011;10431;50.228;9.112;2023-09-19T16:01:38;8.23;;;2.92;;